Time;durP1;ratioP1;P1;durP2;ratioP2;P2;SDS_P1;SDS_P2;PMS_P1;PMS_P2;Temp;Humidity;BMP_temperature;BMP_pressure;BME280_temperature;BME280_humidity;BME280_pressure;Samples;Min_cycle;Max_cycle;Signal;HPM_P1;HPM_P2
2022/12/09 00:01:07;;;;;;;12.00;8.43;;;;;;;3.94;50.75;100302.31;5059693;28;20045;-72
2022/12/09 00:03:35;;;;;;;14.05;8.93;;;;;;;3.92;50.67;100302.41;5059561;28;20040;-72
2022/12/09 00:06:07;;;;;;;12.02;8.10;;;;;;;3.94;50.36;100296.91;5064198;28;20037;-72
2022/12/09 00:08:36;;;;;;;13.10;9.00;;;;;;;3.91;50.62;100303.38;5060264;28;20132;-72
2022/12/09 00:11:05;;;;;;;12.05;8.98;;;;;;;3.92;50.64;100293.41;5040853;28;20068;-72
2022/12/09 00:13:34;;;;;;;13.43;8.93;;;;;;;3.93;50.53;100293.31;5040193;28;20143;-72
2022/12/09 00:16:05;;;;;;;15.85;9.82;;;;;;;3.94;50.55;100296.91;5058408;28;20571;-72
2022/12/09 00:18:34;;;;;;;12.95;8.55;;;;;;;3.92;50.67;100290.72;5061634;28;20072;-72
2022/12/09 00:21:11;;;;;;;11.95;8.15;;;;;;;3.93;50.29;100279.78;5062791;28;20047;-72
2022/12/09 00:23:39;;;;;;;14.05;8.38;;;;;;;3.91;50.81;100281.72;5058033;28;20041;-72
2022/12/09 00:26:07;;;;;;;12.52;8.48;;;;;;;3.92;50.60;100288.00;5030359;28;20045;-72
2022/12/09 00:28:37;;;;;;;13.02;8.88;;;;;;;3.92;50.45;100283.47;5058906;28;20485;-72
2022/12/09 00:31:06;;;;;;;14.60;9.52;;;;;;;3.92;50.70;100301.53;5036893;28;20033;-72
2022/12/09 00:33:35;;;;;;;14.85;8.82;;;;;;;3.91;50.70;100297.97;5044467;28;20064;-72
2022/12/09 00:36:05;;;;;;;13.80;8.90;;;;;;;3.92;50.54;100296.13;5068306;28;20286;-72
2022/12/09 00:38:33;;;;;;;14.70;9.52;;;;;;;3.90;50.58;100293.53;5055934;28;20037;-72
2022/12/09 00:41:01;;;;;;;13.68;9.18;;;;;;;3.89;50.79;100294.53;5046089;28;20055;-72
2022/12/09 00:43:29;;;;;;;14.15;8.90;;;;;;;3.90;50.52;100289.94;5053890;28;20037;-72
2022/12/09 00:45:59;;;;;;;13.90;8.55;;;;;;;3.90;50.54;100287.25;5052478;28;20048;-72
2022/12/09 00:48:28;;;;;;;13.18;8.27;;;;;;;3.90;50.57;100298.06;5057396;28;20119;-72
2022/12/09 00:50:56;;;;;;;14.85;9.27;;;;;;;3.89;50.58;100286.41;5066229;28;20135;-72
2022/12/09 00:53:24;;;;;;;14.25;8.90;;;;;;;3.89;50.59;100299.94;5065999;28;20040;-72
2022/12/09 00:55:52;;;;;;;11.48;8.52;;;;;;;3.88;50.49;100290.06;5039038;28;20051;-72
2022/12/09 00:58:20;;;;;;;14.43;8.82;;;;;;;3.89;50.52;100288.25;5063107;28;20068;-72
2022/12/09 01:00:48;;;;;;;13.55;8.55;;;;;;;3.88;50.61;100291.91;5040698;28;20040;-72
2022/12/09 01:03:20;;;;;;;14.20;8.90;;;;;;;3.89;50.36;100282.81;5033446;28;20048;-72
2022/12/09 01:05:48;;;;;;;13.65;8.15;;;;;;;3.87;50.53;100285.63;5057416;28;20052;-72
2022/12/09 01:08:17;;;;;;;13.45;8.55;;;;;;;3.88;50.53;100287.38;5034531;28;20045;-72
2022/12/09 01:10:46;;;;;;;14.65;8.77;;;;;;;3.89;50.65;100282.81;5058611;28;20088;-72
2022/12/09 01:13:15;;;;;;;15.77;9.05;;;;;;;3.89;50.65;100296.38;5043518;28;20040;-72
2022/12/09 01:15:43;;;;;;;13.43;8.70;;;;;;;3.88;50.52;100295.50;5051742;28;20033;-72
2022/12/09 01:18:12;;;;;;;15.52;8.35;;;;;;;3.88;50.40;100294.63;5065754;28;20436;-71
2022/12/09 01:20:41;;;;;;;13.18;8.73;;;;;;;3.88;50.27;100291.91;5044581;28;20109;-72
2022/12/09 01:23:10;;;;;;;13.02;8.43;;;;;;;3.87;50.68;100296.47;5036454;28;20048;-72
2022/12/09 01:25:38;;;;;;;14.23;9.32;;;;;;;3.88;50.64;100300.03;5037407;28;20044;-72
2022/12/09 01:28:06;;;;;;;15.15;8.85;;;;;;;3.87;50.47;100296.47;5042927;28;20320;-72
2022/12/09 01:30:34;;;;;;;14.00;8.93;;;;;;;3.87;50.61;100299.16;5057951;28;20083;-72
2022/12/09 01:33:02;;;;;;;14.15;8.80;;;;;;;3.87;50.47;100298.31;5060854;28;20091;-72
2022/12/09 01:35:30;;;;;;;15.05;8.93;;;;;;;3.87;50.54;100301.88;5047442;28;20063;-73
2022/12/09 01:38:00;;;;;;;12.95;8.40;;;;;;;3.89;50.47;100309.91;5067021;28;20130;-72
2022/12/09 01:40:28;;;;;;;14.60;8.88;;;;;;;3.87;50.44;100312.69;5045413;28;20046;-73
2022/12/09 01:42:56;;;;;;;11.98;8.30;;;;;;;3.87;50.61;100307.28;5045648;28;20037;-73
2022/12/09 01:45:38;;;;;;;13.40;8.60;;;;;;;3.89;50.17;100305.34;5056705;28;20642;-73
2022/12/09 01:48:12;;;;;;;11.30;7.75;;;;;;;3.87;50.23;100304.59;5066726;28;20037;-73
2022/12/09 01:50:49;;;;;;;14.90;8.65;;;;;;;3.87;50.57;100304.59;5042236;28;20064;-72
2022/12/09 01:53:21;;;;;;;13.40;8.77;;;;;;;3.86;50.47;100305.56;5036399;28;20118;-72
2022/12/09 01:55:50;;;;;;;11.55;8.25;;;;;;;3.86;50.57;100307.38;5041218;28;20041;-72
2022/12/09 01:58:19;;;;;;;12.60;7.88;;;;;;;3.88;50.66;100302.75;5050439;28;20048;-72
2022/12/09 02:00:47;;;;;;;14.05;8.68;;;;;;;3.87;50.68;100291.06;5043070;28;20044;-73
2022/12/09 02:03:16;;;;;;;13.63;8.70;;;;;;;3.88;50.70;100289.22;5038620;28;20048;-72
2022/12/09 02:05:45;;;;;;;13.23;7.88;;;;;;;3.89;50.44;100293.66;5048721;28;20415;-72
2022/12/09 02:08:15;;;;;;;13.52;8.38;;;;;;;3.88;50.54;100283.78;5046687;28;20339;-72
2022/12/09 02:10:55;;;;;;;12.65;8.32;;;;;;;3.90;50.29;100287.25;5047976;28;20064;-72
2022/12/09 02:13:32;;;;;;;12.00;8.25;;;;;;;3.89;50.50;100294.53;5052087;28;20090;-72
2022/12/09 02:16:05;;;;;;;14.18;8.60;;;;;;;3.88;50.74;100290.06;5036948;28;20122;-72
2022/12/09 02:18:36;;;;;;;;;;;;;;;3.65;50.84;100280.81;5071623;28;20040;-72
2022/12/09 02:21:09;;;;;;;12.63;7.78;;;;;;;3.86;50.74;100283.03;5040007;28;19970;-73
2022/12/09 02:23:41;;;;;;;13.38;8.05;;;;;;;3.86;50.54;100267.66;5054171;28;21935;-72
2022/12/09 02:26:22;;;;;;;14.05;8.35;;;;;;;3.89;50.23;100266.59;5066514;28;20437;-72
2022/12/09 02:29:17;;;;;;;15.95;8.98;;;;;;;3.89;50.47;100267.44;5042688;28;20071;-72
2022/12/09 02:32:04;;;;;;;12.52;8.30;;;;;;;3.88;50.25;100268.44;5042271;28;20144;-72
2022/12/09 02:34:37;;;;;;;13.20;8.13;;;;;;;3.88;50.61;100262.13;5047998;28;20048;-72
2022/12/09 02:37:10;;;;;;;12.02;7.53;;;;;;;3.87;50.57;100261.28;5069501;28;20033;-72
2022/12/09 02:39:46;;;;;;;10.52;7.68;;;;;;;3.88;50.47;100265.72;5047225;28;20344;-72
2022/12/09 02:42:18;;;;;;;13.65;8.80;;;;;;;3.88;50.63;100254.88;5049396;28;20071;-72
2022/12/09 02:44:50;;;;;;;13.77;9.18;;;;;;;3.88;50.70;100268.44;5037561;28;20137;-72
2022/12/09 02:47:25;;;;;;;13.02;8.63;;;;;;;3.86;50.65;100267.66;5033720;28;20803;-73
2022/12/09 02:50:00;;;;;;;12.50;7.97;;;;;;;3.88;50.49;100265.72;5046593;28;20036;-72
2022/12/09 02:52:31;;;;;;;11.77;7.43;;;;;;;3.87;50.57;100263.09;5070638;28;20044;-73
2022/12/09 02:55:03;;;;;;;11.23;7.78;;;;;;;3.85;50.60;100263.22;5042719;28;20489;-72
2022/12/09 02:57:34;;;;;;;10.63;7.05;;;;;;;3.84;50.57;100255.19;5047434;28;20256;-73
2022/12/09 03:00:05;;;;;;;12.20;7.88;;;;;;;3.82;50.50;100258.00;5057531;28;20111;-72
2022/12/09 03:02:36;;;;;;;11.30;7.10;;;;;;;3.83;50.62;100253.44;5070399;28;20040;-72
2022/12/09 03:05:16;;;;;;;10.75;7.53;;;;;;;3.82;50.39;100249.88;5060224;28;20040;-72
2022/12/09 03:07:54;;;;;;;11.45;7.47;;;;;;;3.81;50.62;100248.16;5069101;28;20410;-72
2022/12/09 03:10:28;;;;;;;12.30;7.57;;;;;;;3.80;50.49;100257.25;5065744;28;20044;-72
2022/12/09 03:13:02;;;;;;;11.43;8.05;;;;;;;3.79;50.55;100252.81;5054857;28;20047;-72
2022/12/09 03:15:34;;;;;;;13.43;7.80;;;;;;;3.77;50.37;100250.22;5052601;28;20045;-72
2022/12/09 03:18:06;;;;;;;11.25;7.75;;;;;;;3.77;50.76;100241.22;5043706;28;20078;-72
2022/12/09 03:20:39;;;;;;;13.52;8.38;;;;;;;3.78;50.64;100251.06;5067558;28;20563;-72
2022/12/09 03:23:10;;;;;;;11.05;6.97;;;;;;;3.77;50.88;100249.34;5067362;28;20036;-72
2022/12/09 03:25:42;;;;;;;15.07;8.30;;;;;;;3.75;50.81;100248.56;5058631;28;20128;-72
2022/12/09 03:28:16;;;;;;;11.15;7.75;;;;;;;3.73;50.61;100239.69;5054070;28;20305;-72
2022/12/09 03:30:45;;;;;;;12.27;7.75;;;;;;;3.74;50.58;100234.16;5055503;28;20040;-73
2022/12/09 03:33:17;;;;;;;12.15;7.82;;;;;;;3.74;50.71;100236.88;5039922;28;20052;-72
2022/12/09 03:35:51;;;;;;;11.97;7.83;;;;;;;3.73;50.49;100232.44;5053097;28;20045;-73
2022/12/09 03:38:22;;;;;;;11.77;7.90;;;;;;;3.74;50.53;100241.41;5069639;28;20286;-73
2022/12/09 03:40:53;;;;;;;11.32;7.93;;;;;;;3.73;50.91;100245.97;5048530;28;20040;-72
2022/12/09 03:43:24;;;;;;;12.57;8.48;;;;;;;3.72;50.83;100244.25;5052972;28;20060;-72
2022/12/09 03:45:55;;;;;;;11.63;7.65;;;;;;;3.72;50.65;100233.44;5054992;28;20033;-73
2022/12/09 03:48:25;;;;;;;11.50;7.68;;;;;;;3.70;50.88;100235.38;5052544;28;20123;-73
2022/12/09 03:50:59;;;;;;;12.60;8.27;;;;;;;3.73;50.47;100235.13;5061294;28;20322;-72
2022/12/09 03:53:33;;;;;;;11.10;7.70;;;;;;;3.70;50.54;100231.78;5043782;28;20063;-72
2022/12/09 03:56:07;;;;;;;11.70;7.88;;;;;;;3.70;50.59;100227.25;5042372;28;20044;-73
2022/12/09 03:58:37;;;;;;;12.07;7.85;;;;;;;3.68;50.81;100228.31;5057810;28;20045;-72
2022/12/09 04:01:06;;;;;;;12.80;7.60;;;;;;;3.68;50.78;100234.59;5050380;28;20095;-72
2022/12/09 04:03:35;;;;;;;11.23;7.82;;;;;;;3.67;50.57;100232.88;5067300;28;20074;-72
2022/12/09 04:06:04;;;;;;;11.25;7.80;;;;;;;3.67;50.46;100223.88;5054314;28;20446;-72
2022/12/09 04:08:33;;;;;;;11.48;8.05;;;;;;;3.65;50.66;100229.38;5059928;28;20408;-72
2022/12/09 04:11:01;;;;;;;12.13;8.18;;;;;;;3.65;50.69;100223.09;5055771;28;20091;-72
2022/12/09 04:13:29;;;;;;;12.02;7.65;;;;;;;3.64;50.70;100224.97;5057714;28;20048;-72
2022/12/09 04:15:57;;;;;;;11.57;8.05;;;;;;;3.64;50.78;100224.97;5049458;28;20048;-72
2022/12/09 04:18:25;;;;;;;11.43;7.60;;;;;;;3.63;50.87;100220.53;5050577;28;20428;-74
2022/12/09 04:20:53;;;;;;;10.55;7.55;;;;;;;3.63;50.72;100228.66;5040096;28;20041;-74
2022/12/09 04:23:22;;;;;;;12.45;8.00;;;;;;;3.63;50.68;100223.25;5075336;28;20060;-74
2022/12/09 04:25:50;;;;;;;11.25;8.02;;;;;;;3.62;50.84;100218.78;5065596;28;20052;-74
2022/12/09 04:28:18;;;;;;;13.52;7.85;;;;;;;3.62;50.65;100217.94;5061077;28;20043;-74
2022/12/09 04:30:46;;;;;;;13.05;8.05;;;;;;;3.61;50.66;100211.66;5072144;28;20612;-74
2022/12/09 04:33:14;;;;;;;11.93;7.75;;;;;;;3.61;50.85;100213.47;5055446;28;20115;-74
2022/12/09 04:35:42;;;;;;;12.35;7.40;;;;;;;3.60;50.80;100215.31;5032243;28;20071;-74
2022/12/09 04:38:10;;;;;;;14.65;8.05;;;;;;;3.61;50.78;100213.47;5047391;28;20049;-74
2022/12/09 04:40:39;;;;;;;11.20;7.20;;;;;;;3.61;50.84;100210.78;5059386;28;20052;-74
2022/12/09 04:43:07;;;;;;;12.68;7.50;;;;;;;3.62;50.85;100201.69;5052219;28;20138;-74
2022/12/09 04:45:36;;;;;;;11.35;7.78;;;;;;;3.62;50.90;100202.56;5055727;28;20045;-74
2022/12/09 04:48:04;;;;;;;12.23;7.68;;;;;;;3.61;50.82;100202.66;5053195;28;20049;-74
2022/12/09 04:50:32;;;;;;;12.80;7.85;;;;;;;3.61;50.70;100211.66;5063366;28;20212;-74
2022/12/09 04:53:00;;;;;;;12.50;7.88;;;;;;;3.61;50.86;100208.06;5064214;28;20094;-74
2022/12/09 04:55:30;;;;;;;11.45;7.78;;;;;;;3.61;50.81;100208.94;5061253;28;20397;-74
2022/12/09 04:57:59;;;;;;;12.57;7.47;;;;;;;3.62;50.85;100209.81;5045884;28;20040;-75
2022/12/09 05:00:27;;;;;;;11.18;7.75;;;;;;;3.60;50.88;100214.44;5059408;28;20048;-74
2022/12/09 05:02:55;;;;;;;12.80;7.60;;;;;;;3.61;50.65;100213.47;5058820;28;20144;-74
2022/12/09 05:05:23;;;;;;;12.57;7.47;;;;;;;3.60;50.63;100204.50;5057694;28;20045;-74
2022/12/09 05:07:51;;;;;;;10.93;7.05;;;;;;;3.60;50.69;100199.09;5058685;28;20497;-74
2022/12/09 05:10:20;;;;;;;11.40;7.65;;;;;;;3.59;50.70;100202.75;5059493;28;20134;-74
2022/12/09 05:12:48;;;;;;;13.63;7.55;;;;;;;3.59;50.72;100200.06;5065795;28;20047;-74
2022/12/09 05:15:18;;;;;;;12.88;8.43;;;;;;;3.60;50.59;100196.38;5053193;28;20064;-74
2022/12/09 05:17:46;;;;;;;13.10;8.15;;;;;;;3.59;50.49;100199.19;5064177;28;20052;-74
2022/12/09 05:20:15;;;;;;;12.10;8.25;;;;;;;3.58;50.54;100197.44;5063348;28;20064;-74
2022/12/09 05:22:43;;;;;;;13.80;8.43;;;;;;;3.57;50.49;100193.88;5041811;28;20482;-74
2022/12/09 05:25:11;;;;;;;11.15;7.82;;;;;;;3.57;50.53;100201.13;5045874;28;20071;-74
2022/12/09 05:27:39;;;;;;;12.20;8.00;;;;;;;3.56;50.46;100196.72;5037130;28;20048;-74
2022/12/09 05:30:08;;;;;;;13.57;7.88;;;;;;;3.56;50.51;100202.13;5063623;28;20134;-74
2022/12/09 05:32:38;;;;;;;11.85;7.63;;;;;;;3.55;50.38;100205.78;5049187;28;20460;-74
2022/12/09 05:35:07;;;;;;;12.60;8.13;;;;;;;3.54;50.52;100198.66;5057288;28;20114;-74
2022/12/09 05:37:35;;;;;;;11.52;7.30;;;;;;;3.52;50.55;100200.59;5056695;28;20453;-74
2022/12/09 05:40:05;;;;;;;13.63;8.75;;;;;;;3.52;50.33;100197.88;5061772;28;20041;-74
2022/12/09 05:42:34;;;;;;;12.27;8.25;;;;;;;3.50;50.32;100197.97;5063022;28;20040;-76
2022/12/09 05:45:09;;;;;;;12.63;8.38;;;;;;;3.48;50.35;100189.13;5060458;28;20040;-74
2022/12/09 05:47:39;;;;;;;12.48;8.20;;;;;;;3.49;50.41;100195.38;5056238;28;20570;-73
2022/12/09 05:50:08;;;;;;;12.10;8.02;;;;;;;3.47;50.45;100187.38;5041806;28;20071;-74
2022/12/09 05:52:37;;;;;;;11.88;7.80;;;;;;;3.45;50.17;100185.75;5056644;28;20063;-74
2022/12/09 05:55:07;;;;;;;12.52;7.63;;;;;;;3.44;50.30;100189.44;5064798;28;20113;-73
2022/12/09 05:57:37;;;;;;;13.63;8.40;;;;;;;3.43;50.25;100182.28;5038361;28;20060;-73
2022/12/09 06:00:06;;;;;;;12.80;8.65;;;;;;;3.40;50.33;100189.63;5063599;28;20037;-74
2022/12/09 06:02:40;;;;;;;12.43;8.15;;;;;;;3.39;50.43;100179.81;5066445;28;20048;-74
2022/12/09 06:05:09;;;;;;;13.50;8.43;;;;;;;3.36;50.21;100180.00;5047195;28;20056;-73
2022/12/09 06:07:37;;;;;;;12.77;8.50;;;;;;;3.35;50.21;100188.22;5047505;28;20102;-74
2022/12/09 06:10:07;;;;;;;12.32;7.85;;;;;;;3.33;50.12;100195.56;5037417;28;20162;-74
2022/12/09 06:12:35;;;;;;;13.98;8.73;;;;;;;3.30;50.18;100184.94;5040355;28;20045;-74
2022/12/09 06:15:04;;;;;;;11.57;8.32;;;;;;;3.29;49.82;100194.03;5036783;28;20044;-73
2022/12/09 06:17:37;;;;;;;14.63;8.95;;;;;;;3.26;50.16;100189.69;5052321;28;20090;-73
2022/12/09 06:20:07;;;;;;;12.50;8.27;;;;;;;3.27;50.16;100180.59;5040745;28;20055;-73
2022/12/09 06:22:36;;;;;;;12.65;8.20;;;;;;;3.24;50.28;100183.50;5040351;28;20064;-74
2022/12/09 06:25:05;;;;;;;12.93;8.02;;;;;;;3.23;50.10;100181.78;5044473;28;20062;-76
2022/12/09 06:27:33;;;;;;;12.05;8.30;;;;;;;3.21;50.25;100189.13;5057026;28;20115;-73
2022/12/09 06:30:02;;;;;;;13.25;8.13;;;;;;;3.20;50.22;100187.41;5047559;28;20044;-73
2022/12/09 06:32:30;;;;;;;14.13;8.40;;;;;;;3.18;50.13;100183.91;5061111;28;20045;-73
2022/12/09 06:34:59;;;;;;;13.40;8.52;;;;;;;3.17;50.05;100178.59;5037258;28;20036;-75
2022/12/09 06:37:31;;;;;;;12.02;8.27;;;;;;;3.15;50.14;100178.75;5033991;28;20070;-75
2022/12/09 06:39:59;;;;;;;14.32;9.20;;;;;;;3.11;50.14;100177.19;5057394;28;20068;-75
2022/12/09 06:42:27;;;;;;;14.00;8.57;;;;;;;3.09;50.06;100173.72;5069281;28;20183;-75
2022/12/09 06:44:55;;;;;;;13.45;8.48;;;;;;;3.06;50.20;100173.09;5035840;28;20549;-75
2022/12/09 06:47:23;;;;;;;13.52;8.07;;;;;;;3.04;50.13;100173.19;5055420;28;20083;-75
2022/12/09 06:49:52;;;;;;;14.35;9.10;;;;;;;3.02;49.93;100180.50;5059257;28;20048;-74
2022/12/09 06:52:20;;;;;;;12.88;8.32;;;;;;;2.98;49.97;100177.16;5071585;28;20043;-74
2022/12/09 06:54:50;;;;;;;12.93;8.00;;;;;;;2.96;49.82;100178.22;5056515;28;20401;-74
2022/12/09 06:57:18;;;;;;;12.52;8.38;;;;;;;2.92;49.95;100182.09;5066841;28;20079;-76
2022/12/09 06:59:46;;;;;;;11.07;7.93;;;;;;;2.87;49.89;100184.25;5049399;28;20047;-73
2022/12/09 07:02:14;;;;;;;12.85;8.45;;;;;;;2.82;50.00;100181.00;5048075;28;20060;-73
2022/12/09 07:04:42;;;;;;;12.38;7.97;;;;;;;2.77;50.14;100183.97;5058697;28;20090;-73
2022/12/09 07:07:11;;;;;;;14.60;8.80;;;;;;;2.72;50.26;100185.25;5050299;28;20090;-73
2022/12/09 07:09:40;;;;;;;15.80;8.77;;;;;;;2.67;50.09;100190.94;5049186;28;20486;-73
2022/12/09 07:12:09;;;;;;;12.75;8.55;;;;;;;2.64;50.07;100191.19;5056902;28;20060;-73
2022/12/09 07:14:37;;;;;;;14.02;9.48;;;;;;;2.60;50.03;100200.44;5036599;28;20099;-73
2022/12/09 07:17:05;;;;;;;14.07;8.95;;;;;;;2.55;50.21;100189.94;5065739;28;20041;-73
2022/12/09 07:19:34;;;;;;;14.07;10.18;;;;;;;2.52;50.15;100191.97;5062722;28;20066;-73
2022/12/09 07:22:02;;;;;;;13.82;9.93;;;;;;;2.48;50.24;100194.00;5059498;28;20033;-73
2022/12/09 07:24:30;;;;;;;13.77;9.80;;;;;;;2.45;50.28;100193.31;5063934;28;20048;-73
2022/12/09 07:26:58;;;;;;;16.13;10.68;;;;;;;2.41;50.26;100197.19;5054145;28;20052;-73
2022/12/09 07:29:36;;;;;;;16.77;10.38;;;;;;;2.37;50.21;100199.22;5048342;28;20075;-73
2022/12/09 07:32:05;;;;;;;15.82;10.38;;;;;;;2.34;50.34;100198.53;5056412;28;20033;-73
2022/12/09 07:34:33;;;;;;;13.60;10.00;;;;;;;2.32;50.41;100200.50;5057568;28;20049;-73
2022/12/09 07:37:01;;;;;;;16.67;10.73;;;;;;;2.27;50.50;100203.47;5043256;28;20059;-73
2022/12/09 07:39:30;;;;;;;15.10;9.75;;;;;;;2.25;50.32;100208.09;5064194;28;20036;-73
2022/12/09 07:41:58;;;;;;;17.88;10.15;;;;;;;2.23;50.27;100212.75;5063638;28;20435;-73
2022/12/09 07:44:29;;;;;;;14.73;10.27;;;;;;;2.20;50.42;100215.63;5051523;28;20066;-73
2022/12/09 07:46:59;;;;;;;15.32;10.43;;;;;;;2.17;50.48;100208.56;5050328;28;20071;-73
2022/12/09 07:49:27;;;;;;;13.45;9.30;;;;;;;2.15;50.52;100209.66;5050396;28;20048;-73
2022/12/09 07:51:55;;;;;;;15.32;9.63;;;;;;;2.14;50.53;100213.31;5057095;28;20044;-73
2022/12/09 07:54:24;;;;;;;14.65;9.55;;;;;;;2.12;50.66;100213.41;5057096;28;20040;-73
2022/12/09 07:56:52;;;;;;;17.23;9.88;;;;;;;2.10;50.69;100211.75;5061957;28;20041;-73
2022/12/09 07:59:20;;;;;;;13.23;9.07;;;;;;;2.08;50.89;100219.94;5066507;28;20393;-73
2022/12/09 08:01:48;;;;;;;14.57;9.32;;;;;;;2.07;50.63;100220.06;5060181;28;20044;-73
2022/12/09 08:04:17;;;;;;;14.10;9.10;;;;;;;2.07;50.75;100228.16;5063492;28;20463;-73
2022/12/09 08:06:46;;;;;;;14.27;9.32;;;;;;;2.06;50.68;100226.44;5053051;28;20041;-73
2022/12/09 08:09:15;;;;;;;14.95;8.93;;;;;;;2.04;50.80;100225.66;5062299;28;20064;-73
2022/12/09 08:11:44;;;;;;;16.80;9.50;;;;;;;2.04;50.72;100231.91;5058958;28;20087;-73
2022/12/09 08:14:12;;;;;;;13.70;9.25;;;;;;;2.04;50.79;100231.03;5052134;28;20044;-73
2022/12/09 08:16:41;;;;;;;16.48;9.38;;;;;;;2.03;50.87;100238.28;5059564;28;20094;-73
2022/12/09 08:19:10;;;;;;;14.90;9.65;;;;;;;2.03;50.78;100238.28;5042882;28;20056;-73
2022/12/09 08:21:41;;;;;;;14.55;9.27;;;;;;;2.04;50.71;100237.31;5037946;28;20040;-73
2022/12/09 08:24:12;;;;;;;14.82;9.27;;;;;;;2.04;50.78;100239.16;5050780;28;20041;-73
2022/12/09 08:26:41;;;;;;;13.60;9.32;;;;;;;2.02;50.86;100236.53;5073332;28;20074;-73
2022/12/09 08:29:12;;;;;;;17.75;10.43;;;;;;;2.04;50.95;100236.44;5066366;28;20116;-73
2022/12/09 08:31:41;;;;;;;16.95;9.80;;;;;;;2.04;50.99;100228.34;5059718;28;20064;-73
2022/12/09 08:34:11;;;;;;;17.20;10.35;;;;;;;2.02;51.12;100224.88;5068223;28;20049;-73
2022/12/09 08:36:41;;;;;;;16.85;10.88;;;;;;;2.04;51.14;100234.63;5058063;28;20127;-73
2022/12/09 08:39:10;;;;;;;17.35;11.13;;;;;;;2.03;51.27;100227.47;5060504;28;20049;-73
2022/12/09 08:41:39;;;;;;;17.75;10.93;;;;;;;2.03;51.20;100230.19;5062997;28;20101;-73
2022/12/09 08:44:10;;;;;;;17.38;10.15;;;;;;;2.04;51.34;100228.34;5038319;28;20033;-73
2022/12/09 08:46:41;;;;;;;19.25;11.43;;;;;;;2.04;51.30;100226.50;5058347;28;20485;-73
2022/12/09 08:49:09;;;;;;;18.05;11.60;;;;;;;2.02;51.27;100223.03;5054853;28;20053;-72
2022/12/09 08:51:38;;;;;;;19.75;11.75;;;;;;;2.04;51.46;100234.63;5057165;28;20048;-73
2022/12/09 08:54:08;;;;;;;20.75;13.18;;;;;;;2.04;51.42;100223.81;5048392;28;20503;-73
2022/12/09 08:56:36;;;;;;;19.10;11.52;;;;;;;2.04;51.56;100231.03;5066908;28;20051;-73
2022/12/09 08:59:04;;;;;;;20.75;12.40;;;;;;;2.04;51.63;100215.72;5066200;28;20033;-73
2022/12/09 09:01:33;;;;;;;23.15;13.10;;;;;;;2.06;51.73;100221.91;5061231;28;20119;-73
2022/12/09 09:04:05;;;;;;;19.45;11.15;;;;;;;2.09;51.86;100220.81;5041590;28;20066;-73
2022/12/09 09:06:35;;;;;;;18.48;11.10;;;;;;;2.08;51.98;100230.75;5057532;28;20056;-73
2022/12/09 09:09:04;;;;;;;19.70;11.00;;;;;;;2.09;52.07;100224.38;5061469;28;20404;-73
2022/12/09 09:11:35;;;;;;;19.15;11.88;;;;;;;2.12;51.94;100226.91;5053177;28;20393;-73
2022/12/09 09:14:05;;;;;;;18.10;11.10;;;;;;;2.13;51.94;100223.25;5062111;28;20040;-73
2022/12/09 09:16:34;;;;;;;19.95;11.65;;;;;;;2.13;52.08;100220.53;5062805;28;20053;-73
2022/12/09 09:19:04;;;;;;;18.80;11.45;;;;;;;2.15;52.11;100228.56;5060175;28;20493;-73
2022/12/09 09:21:34;;;;;;;21.98;12.18;;;;;;;2.16;52.08;100233.88;5046564;28;20143;-73
2022/12/09 09:24:02;;;;;;;19.02;11.57;;;;;;;2.16;52.05;100236.56;5064604;28;20090;-73
2022/12/09 09:26:31;;;;;;;19.73;11.90;;;;;;;2.18;52.00;100237.31;5066912;28;20052;-73
2022/12/09 09:29:01;;;;;;;17.13;11.40;;;;;;;2.20;51.95;100243.50;5055449;28;20139;-73
2022/12/09 09:31:28;;;;;;;19.60;12.07;;;;;;;2.21;52.24;100244.34;5068224;28;20390;-72
2022/12/09 09:33:57;;;;;;;18.83;12.02;;;;;;;2.22;52.19;100246.09;5058861;28;20044;-73
2022/12/09 09:36:25;;;;;;;19.27;11.43;;;;;;;2.24;52.30;100238.78;5043605;28;20136;-73
2022/12/09 09:38:56;;;;;;;17.77;11.75;;;;;;;2.26;52.42;100243.09;5064811;28;20090;-73
2022/12/09 09:41:36;;;;;;;19.48;12.23;;;;;;;2.29;52.60;100243.88;5061804;28;20040;-73
2022/12/09 09:44:17;;;;;;;19.75;12.40;;;;;;;2.31;52.76;100242.81;5050721;28;20144;-73
2022/12/09 09:46:48;;;;;;;18.83;12.45;;;;;;;2.33;52.56;100242.72;5038501;28;20048;-73
2022/12/09 09:49:20;;;;;;;17.88;10.52;;;;;;;2.34;52.72;100239.91;5063214;28;20049;-73
2022/12/09 09:51:48;;;;;;;17.02;11.45;;;;;;;2.36;52.68;100242.50;5068707;28;20047;-73
2022/12/09 09:54:16;;;;;;;21.48;11.85;;;;;;;2.37;52.69;100238.84;5047787;28;20576;-73
2022/12/09 09:56:53;;;;;;;22.13;12.50;;;;;;;2.41;52.67;100238.56;5065659;28;20079;-73
2022/12/09 09:59:37;;;;;;;18.90;12.02;;;;;;;2.43;52.58;100233.94;5065740;28;20119;-72
2022/12/09 10:02:16;;;;;;;17.08;10.93;;;;;;;2.46;52.87;100235.56;5041335;28;20116;-73
2022/12/09 10:04:55;;;;;;;16.92;11.00;;;;;;;2.47;52.83;100238.19;5060272;28;20053;-73
2022/12/09 10:07:33;;;;;;;18.70;12.18;;;;;;;2.49;52.65;100232.69;5073735;28;20044;-73
2022/12/09 10:10:09;;;;;;;21.23;12.55;;;;;;;2.51;52.68;100237.00;5067276;28;20136;-73
2022/12/09 10:12:48;;;;;;;19.73;12.60;;;;;;;2.53;52.76;100240.47;5061445;28;20040;-73
2022/12/09 10:15:23;;;;;;;18.30;11.35;;;;;;;2.54;52.56;100230.53;5058522;28;20041;-73
2022/12/09 10:17:54;;;;;;;18.38;10.75;;;;;;;2.56;52.67;100231.31;5087856;22;20036;-81
2022/12/09 10:20:25;;;;;;;17.33;11.57;;;;;;;2.56;52.46;100229.50;5088220;28;20044;-81
2022/12/09 10:22:59;;;;;;;18.15;11.88;;;;;;;2.56;52.45;100228.63;5093175;28;20779;-81
2022/12/09 10:25:30;;;;;;;19.33;12.38;;;;;;;2.57;52.53;100223.13;5092180;28;20383;-81
2022/12/09 10:28:07;;;;;;;20.35;11.30;;;;;;;2.59;52.50;100225.69;5087985;28;20073;-81
2022/12/09 10:30:38;;;;;;;19.02;11.60;;;;;;;2.59;52.75;100223.88;5089783;28;20042;-81
2022/12/09 10:33:12;;;;;;;19.17;12.20;;;;;;;2.59;52.67;100223.88;5095715;28;20036;-80
2022/12/09 10:35:41;;;;;;;22.38;12.63;;;;;;;2.60;52.79;100217.50;5112452;28;20035;-81
2022/12/09 10:38:12;;;;;;;17.17;11.60;;;;;;;2.62;52.62;100215.59;5095133;28;20108;-81
2022/12/09 10:40:53;;;;;;;20.33;12.25;;;;;;;2.66;52.76;100215.41;5097781;27;20035;-81
2022/12/09 10:43:36;;;;;;;18.48;12.10;;;;;;;2.64;52.64;100208.25;5085607;28;20039;-81
2022/12/09 10:46:11;;;;;;;19.85;11.18;;;;;;;2.67;52.83;100212.56;5092563;28;20588;-82
2022/12/09 10:48:54;;;;;;;21.02;12.15;;;;;;;2.67;52.74;100212.56;5089709;28;20401;-81
2022/12/09 10:51:25;;;;;;;17.77;11.18;;;;;;;2.69;52.52;100215.19;5090698;28;20413;-81
2022/12/09 10:53:57;;;;;;;18.35;10.63;;;;;;;2.70;52.83;100214.22;5100891;28;20058;-82
2022/12/09 10:56:28;;;;;;;18.90;10.10;;;;;;;2.70;52.63;100208.81;5088138;28;20555;-81
2022/12/09 10:59:09;;;;;;;15.57;9.98;;;;;;;2.74;52.23;100203.09;5086874;28;20040;-80
2022/12/09 11:01:51;;;;;;;17.95;10.98;;;;;;;2.73;52.30;100193.28;5087828;28;20046;-80
2022/12/09 11:04:23;;;;;;;15.68;9.80;;;;;;;2.74;52.38;100194.97;5096300;27;20076;-81
2022/12/09 11:06:53;;;;;;;;;;;;;;;2.53;52.71;100201.78;5106227;27;20058;-81
2022/12/09 11:09:29;;;;;;;;;;;;;;;2.51;53.04;100198.31;5086778;28;19963;-81
2022/12/09 11:11:58;;;;;;;;;;;;;;;2.49;53.23;100195.75;5097419;27;19919;-81
2022/12/09 11:14:29;;;;;;;;;;;;;;;2.51;53.14;100191.09;5091740;28;20452;-81
2022/12/09 11:16:59;;;;;;;;;;;;;;;2.53;53.02;100201.78;5095052;28;19919;-81
2022/12/09 11:19:28;;;;;;;;;;;;;;;2.55;53.01;100197.16;5113391;28;20010;-81
2022/12/09 11:22:13;;;;;;;;;;;;;;;2.57;52.99;100200.66;5089645;28;19923;-81
2022/12/09 11:24:41;;;;;;;;;;;;;;;2.59;53.06;100196.00;5095769;28;19919;-81
2022/12/09 11:27:23;;;;;;;;;;;;;;;2.60;53.02;100204.00;5087863;28;19924;-81
2022/12/09 11:30:04;;;;;;;;;;;;;;;2.60;52.98;100187.78;5101868;28;19942;-81
2022/12/09 11:32:52;;;;;;;;;;;;;;;2.62;52.91;100188.56;5087748;27;19919;-80
2022/12/09 11:35:23;;;;;;;;;;;;;;;2.63;52.83;100187.59;5097664;27;19972;-80
2022/12/09 11:37:51;;;;;;;;;;;;;;;2.66;52.85;100193.78;5131416;27;19974;-80
2022/12/09 11:40:23;;;;;;;;;;;;;;;2.66;52.62;100191.06;5121860;27;19919;-81
2022/12/09 11:42:58;;;;;;;;;;;;;;;2.68;52.51;100191.81;5107349;28;20305;-82